Time;durP1;ratioP1;P1;durP2;ratioP2;P2;SDS_P1;SDS_P2;PMS_P1;PMS_P2;Temp;Humidity;BMP_temperature;BMP_pressure;BME280_temperature;BME280_humidity;BME280_pressure;Samples;Min_cycle;Max_cycle;Signal;HPM_P1;HPM_P2
2023/09/06 00:00:45;;;;;;;0.00;0.00;;;23.70;99.90;;;;;;5012661;28;20071;-76
2023/09/06 00:03:15;;;;;;;0.10;0.10;;;23.70;99.90;;;;;;5012410;28;20034;-77
2023/09/06 00:05:41;;;;;;;0.10;0.10;;;23.50;99.90;;;;;;5012715;28;20026;-76
2023/09/06 00:08:13;;;;;;;0.00;0.00;;;23.40;99.90;;;;;;5012899;28;20088;-76
2023/09/06 00:10:40;;;;;;;0.00;0.00;;;23.10;99.90;;;;;;5012515;28;20026;-76
2023/09/06 00:13:11;;;;;;;0.00;0.00;;;23.20;99.90;;;;;;5012778;28;20038;-77
2023/09/06 00:15:37;;;;;;;0.00;0.00;;;23.30;99.90;;;;;;5012498;28;20378;-76
2023/09/06 00:18:07;;;;;;;0.00;0.00;;;23.30;99.90;;;;;;5012606;28;20102;-76
2023/09/06 00:20:34;;;;;;;0.08;0.08;;;23.00;99.90;;;;;;5012168;28;20026;-76
2023/09/06 00:23:05;;;;;;;0.00;0.00;;;22.90;99.90;;;;;;5010817;28;20026;-77
2023/09/06 00:25:32;;;;;;;0.10;0.10;;;23.00;99.90;;;;;;5012189;28;20030;-76
2023/09/06 00:28:00;;;;;;;0.10;0.10;;;22.80;99.90;;;;;;5011321;28;20042;-76
2023/09/06 00:30:26;;;;;;;0.00;0.00;;;22.80;99.90;;;;;;5010862;28;20014;-76
2023/09/06 00:32:52;;;;;;;0.05;0.05;;;22.80;99.90;;;;;;4991626;28;20033;-76
2023/09/06 00:35:19;;;;;;;0.00;0.00;;;23.00;99.90;;;;;;5010424;28;20101;-76
2023/09/06 00:37:46;;;;;;;0.03;0.03;;;23.00;99.90;;;;;;5010932;28;20037;-76
2023/09/06 00:40:18;;;;;;;0.00;0.00;;;23.10;99.90;;;;;;5012104;28;20497;-77
2023/09/06 00:43:03;;;;;;;0.20;0.20;;;23.00;99.90;;;;;;5012299;28;20105;-77
2023/09/06 00:45:53;;;;;;;0.10;0.10;;;22.90;99.90;;;;;;5011985;28;20493;-76
2023/09/06 00:48:26;;;;;;;0.10;0.10;;;22.80;99.90;;;;;;5010521;28;20040;-76
2023/09/06 00:50:56;;;;;;;1.65;1.35;;;22.90;99.90;;;;;;5010820;28;20490;-76
2023/09/06 00:53:24;;;;;;;0.10;0.10;;;23.00;99.90;;;;;;5027453;28;20022;-76
2023/09/06 00:55:52;;;;;;;0.00;0.00;;;22.90;99.90;;;;;;5012096;28;20026;-76
2023/09/06 00:58:19;;;;;;;0.00;0.00;;;23.00;99.90;;;;;;5012040;28;20091;-76
2023/09/06 01:00:46;;;;;;;0.00;0.00;;;23.00;99.90;;;;;;5009938;28;20022;-76
2023/09/06 01:03:13;;;;;;;0.17;0.17;;;22.90;99.90;;;;;;5011999;28;20014;-76
2023/09/06 01:06:12;;;;;;;0.10;0.10;;;22.90;99.90;;;;;;5011853;28;20083;-76
2023/09/06 01:08:42;;;;;;;0.00;0.00;;;23.00;99.90;;;;;;5011252;28;20465;-76
2023/09/06 01:11:22;;;;;;;0.10;0.10;;;22.70;99.90;;;;;;5010401;28;20200;-76
2023/09/06 01:13:50;;;;;;;0.05;0.05;;;22.70;99.90;;;;;;4994100;28;20486;-76
2023/09/06 01:16:36;;;;;;;0.00;0.00;;;22.80;99.90;;;;;;5011532;28;20041;-76
2023/09/06 01:19:05;;;;;;;0.10;0.10;;;23.00;99.90;;;;;;5011699;28;20386;-76
2023/09/06 01:21:38;;;;;;;0.00;0.00;;;22.80;99.90;;;;;;5010620;28;20079;-76
2023/09/06 01:24:05;;;;;;;0.00;0.00;;;22.60;99.90;;;;;;5010531;28;20133;-73
2023/09/06 01:26:33;;;;;;;0.03;0.03;;;22.70;99.90;;;;;;4997974;28;20064;-73
2023/09/06 01:28:59;;;;;;;0.05;0.05;;;22.70;99.90;;;;;;5026562;28;20084;-73
2023/09/06 01:31:25;;;;;;;0.00;0.00;;;22.80;99.90;;;;;;5010125;28;20113;-73
2023/09/06 01:33:50;;;;;;;0.00;0.00;;;22.90;99.90;;;;;;5010711;28;20112;-73
2023/09/06 01:36:16;;;;;;;0.03;0.03;;;22.90;99.90;;;;;;5010044;28;20026;-73
2023/09/06 01:38:42;;;;;;;0.00;0.00;;;22.90;99.90;;;;;;5026671;28;20034;-73
2023/09/06 01:41:11;;;;;;;0.00;0.00;;;22.80;99.90;;;;;;5026824;28;20067;-73
2023/09/06 01:43:37;;;;;;;0.03;0.03;;;23.00;99.90;;;;;;5010978;28;20036;-73
2023/09/06 01:46:03;;;;;;;0.00;0.00;;;23.00;99.90;;;;;;5011407;28;20389;-73
2023/09/06 01:48:29;;;;;;;0.10;0.10;;;22.70;99.90;;;;;;5026270;28;20064;-73
2023/09/06 01:50:55;;;;;;;0.00;0.00;;;22.60;99.90;;;;;;5011381;28;20041;-71
2023/09/06 01:53:22;;;;;;;0.00;0.00;;;22.60;99.90;;;;;;5011177;28;20041;-73
2023/09/06 01:55:49;;;;;;;0.10;0.10;;;22.50;99.90;;;;;;5011255;28;20030;-73
2023/09/06 01:58:15;;;;;;;0.00;0.00;;;22.40;99.90;;;;;;5010821;28;20022;-73
2023/09/06 02:00:41;;;;;;;0.00;0.00;;;22.30;99.90;;;;;;5009568;28;20406;-73
2023/09/06 02:03:11;;;;;;;0.03;0.03;;;22.10;99.90;;;;;;5009742;28;20022;-73
2023/09/06 02:05:36;;;;;;;0.00;0.00;;;22.10;99.90;;;;;;5010930;28;20419;-73
2023/09/06 02:08:05;;;;;;;0.10;0.10;;;22.00;99.90;;;;;;5025798;28;20040;-74
2023/09/06 02:10:31;;;;;;;0.05;0.05;;;21.90;99.90;;;;;;5010739;28;20022;-72
2023/09/06 02:12:57;;;;;;;0.10;0.00;;;21.90;99.90;;;;;;5009435;28;20032;-73
2023/09/06 02:15:23;;;;;;;0.10;0.10;;;21.80;99.90;;;;;;5010958;28;20030;-73
2023/09/06 02:17:49;;;;;;;0.00;0.00;;;21.90;99.90;;;;;;5009436;28;20128;-73
2023/09/06 02:20:24;;;;;;;0.00;0.00;;;22.10;99.90;;;;;;5010065;28;20445;-74
2023/09/06 02:22:55;;;;;;;0.00;0.00;;;22.10;99.90;;;;;;5026028;28;20117;-73
2023/09/06 02:25:28;;;;;;;0.00;0.00;;;22.10;99.90;;;;;;5011014;28;20062;-74
2023/09/06 02:27:55;;;;;;;0.10;0.10;;;22.10;99.90;;;;;;5010378;28;20038;-73
2023/09/06 02:30:21;;;;;;;0.00;0.00;;;22.10;99.90;;;;;;5025720;28;20037;-73
2023/09/06 02:32:50;;;;;;;0.95;0.95;;;22.00;99.90;;;;;;5010656;28;20104;-73
2023/09/06 02:35:16;;;;;;;0.00;0.00;;;22.10;99.90;;;;;;5010797;28;20033;-73
2023/09/06 02:37:42;;;;;;;0.00;0.00;;;22.00;99.90;;;;;;5010505;28;20064;-72
2023/09/06 02:40:16;;;;;;;0.00;0.00;;;21.80;99.90;;;;;;5010550;28;20034;-73
2023/09/06 02:42:43;;;;;;;0.00;0.00;;;21.70;99.90;;;;;;5014529;28;20033;-76
2023/09/06 02:45:13;;;;;;;0.00;0.00;;;21.70;99.90;;;;;;5028972;28;20480;-76
2023/09/06 02:47:49;;;;;;;0.03;0.03;;;21.60;99.90;;;;;;5008999;28;20557;-76
2023/09/06 02:50:17;;;;;;;0.00;0.00;;;21.60;99.90;;;;;;5025410;28;20100;-76
2023/09/06 02:52:47;;;;;;;0.00;0.00;;;21.70;99.90;;;;;;5009170;28;20032;-76
2023/09/06 02:55:13;;;;;;;0.00;0.00;;;21.80;99.90;;;;;;5018627;28;20478;-73
2023/09/06 02:57:42;;;;;;;0.00;0.00;;;21.50;99.90;;;;;;5009970;28;20026;-76
2023/09/06 03:00:24;;;;;;;0.00;0.00;;;21.50;99.90;;;;;;5009762;28;20026;-76
2023/09/06 03:02:55;;;;;;;0.00;0.00;;;21.60;99.90;;;;;;5009050;28;20033;-76
2023/09/06 03:05:22;;;;;;;0.00;0.00;;;21.60;99.90;;;;;;5025582;28;20077;-76
2023/09/06 03:07:48;;;;;;;0.00;0.00;;;21.70;99.90;;;;;;5008807;28;20117;-76
2023/09/06 03:10:20;;;;;;;0.00;0.00;;;21.60;99.90;;;;;;5008654;28;20022;-76
2023/09/06 03:12:54;;;;;;;0.00;0.00;;;21.70;99.90;;;;;;4992519;28;20030;-76
2023/09/06 03:15:23;;;;;;;0.00;0.00;;;21.50;99.90;;;;;;5008713;28;20056;-76
2023/09/06 03:17:51;;;;;;;0.00;0.00;;;21.40;99.90;;;;;;5008806;28;20037;-76
2023/09/06 03:23:24;;;;;;;0.00;0.00;;;21.40;99.90;;;;;;5041547;28;20112;-76
2023/09/06 03:25:55;;;;;;;0.20;0.20;;;21.40;99.90;;;;;;5047690;28;20067;-76
2023/09/06 03:28:28;;;;;;;0.00;0.00;;;21.40;99.90;;;;;;5018823;28;20041;-73
2023/09/06 03:30:58;;;;;;;;;;;21.20;99.90;;;;;;5008916;28;20030;-73
2023/09/06 03:33:29;;;;;;;0.00;0.00;;;21.20;99.90;;;;;;5012098;28;19917;-76
2023/09/06 03:35:56;;;;;;;0.00;0.00;;;21.10;99.90;;;;;;5011802;28;20171;-77
2023/09/06 03:38:25;;;;;;;0.00;0.00;;;21.20;99.90;;;;;;5012171;28;20033;-76
2023/09/06 03:40:52;;;;;;;0.00;0.00;;;21.10;99.90;;;;;;5011463;28;20030;-76
2023/09/06 03:43:29;;;;;;;0.00;0.00;;;21.30;99.90;;;;;;5013263;28;20390;-76
2023/09/06 03:45:58;;;;;;;0.08;0.08;;;21.10;99.90;;;;;;5011763;28;20029;-76
2023/09/06 03:48:27;;;;;;;0.00;0.00;;;21.30;99.90;;;;;;5011586;28;20122;-76
2023/09/06 03:50:59;;;;;;;0.00;0.00;;;21.30;99.90;;;;;;5013122;28;20022;-77
2023/09/06 03:53:26;;;;;;;0.10;0.10;;;21.20;99.90;;;;;;5013071;28;20393;-76
2023/09/06 03:55:56;;;;;;;0.00;0.00;;;21.10;99.90;;;;;;5012710;28;20026;-76
2023/09/06 03:58:24;;;;;;;0.00;0.00;;;21.10;99.90;;;;;;5028114;28;20117;-75
2023/09/06 04:00:52;;;;;;;0.00;0.00;;;21.10;99.90;;;;;;5027916;28;20120;-76
2023/09/06 04:03:26;;;;;;;0.00;0.00;;;21.00;99.90;;;;;;5011510;28;20121;-76
2023/09/06 04:05:52;;;;;;;0.00;0.00;;;20.90;99.90;;;;;;5012743;28;20073;-76
2023/09/06 04:08:19;;;;;;;0.00;0.00;;;20.90;99.90;;;;;;5027947;28;20042;-76
2023/09/06 04:10:50;;;;;;;0.00;0.00;;;20.80;99.90;;;;;;5028006;28;20096;-76
2023/09/06 04:13:16;;;;;;;0.00;0.00;;;20.70;99.90;;;;;;5011929;28;20087;-77
2023/09/06 04:15:42;;;;;;;0.00;0.00;;;20.80;99.90;;;;;;5011530;28;20494;-77
2023/09/06 04:18:10;;;;;;;0.22;0.22;;;20.90;99.90;;;;;;5011767;28;20030;-76
2023/09/06 04:20:39;;;;;;;0.00;0.00;;;20.90;99.90;;;;;;5027835;28;20029;-77
2023/09/06 04:23:08;;;;;;;0.00;0.00;;;20.80;99.90;;;;;;5028192;28;20029;-77
2023/09/06 04:25:41;;;;;;;0.10;0.10;;;20.70;99.90;;;;;;5012841;28;20030;-76
2023/09/06 04:28:10;;;;;;;0.10;0.10;;;20.60;99.90;;;;;;4992123;28;20038;-76
2023/09/06 04:30:38;;;;;;;0.00;0.00;;;20.70;99.90;;;;;;4995026;28;20099;-76
2023/09/06 04:33:12;;;;;;;0.00;0.00;;;20.60;99.90;;;;;;5027820;28;20037;-76
2023/09/06 04:35:43;;;;;;;0.00;0.00;;;20.60;99.90;;;;;;5027689;28;20061;-76
2023/09/06 04:38:12;;;;;;;0.00;0.00;;;20.70;99.90;;;;;;5010872;28;20022;-77
2023/09/06 04:40:38;;;;;;;0.00;0.00;;;20.70;99.90;;;;;;5011097;28;20128;-75
2023/09/06 04:43:07;;;;;;;0.00;0.00;;;20.60;99.90;;;;;;5009957;28;20041;-76
2023/09/06 04:45:33;;;;;;;0.00;0.00;;;20.60;99.90;;;;;;5012478;28;20022;-73
2023/09/06 04:47:59;;;;;;;0.00;0.00;;;20.70;99.90;;;;;;4994353;28;20042;-76
2023/09/06 04:50:25;;;;;;;10.13;8.48;;;20.70;99.90;;;;;;5010973;28;20085;-76
2023/09/06 04:52:53;;;;;;;0.00;0.00;;;20.60;99.90;;;;;;5010697;28;20503;-75
2023/09/06 04:55:20;;;;;;;0.00;0.00;;;20.50;99.90;;;;;;5010874;28;20497;-76
2023/09/06 04:57:49;;;;;;;0.10;0.10;;;20.40;99.90;;;;;;5010737;28;20030;-75
2023/09/06 05:00:24;;;;;;;4.10;1.90;;;20.40;99.90;;;;;;5010217;28;20030;-76
2023/09/06 05:02:54;;;;;;;0.10;0.10;;;20.40;99.90;;;;;;4990453;28;20125;-76
2023/09/06 05:05:21;;;;;;;0.00;0.00;;;20.30;99.90;;;;;;5007137;28;20546;-77
2023/09/06 05:07:47;;;;;;;0.10;0.10;;;20.30;99.90;;;;;;5010210;28;20030;-75
2023/09/06 05:10:13;;;;;;;0.00;0.00;;;20.30;99.90;;;;;;5010757;28;20539;-77
2023/09/06 05:12:40;;;;;;;0.00;0.00;;;20.30;99.90;;;;;;5027377;28;20101;-76
2023/09/06 05:15:08;;;;;;;0.00;0.00;;;20.40;99.90;;;;;;5010646;28;20029;-77
2023/09/06 05:17:35;;;;;;;0.00;0.00;;;20.30;99.90;;;;;;5026796;28;20475;-76
2023/09/06 05:20:29;;;;;;;0.00;0.00;;;20.30;99.90;;;;;;5026823;28;20032;-76
2023/09/06 05:23:11;;;;;;;0.00;0.00;;;20.20;99.90;;;;;;5026495;28;20026;-73
2023/09/06 05:25:38;;;;;;;0.00;0.00;;;20.30;99.90;;;;;;5009919;28;20071;-73
2023/09/06 05:28:07;;;;;;;0.00;0.00;;;20.40;99.90;;;;;;5010056;28;20042;-73
2023/09/06 05:30:40;;;;;;;0.10;0.10;;;20.30;99.90;;;;;;5016886;28;20041;-73
2023/09/06 05:33:08;;;;;;;0.05;0.05;;;20.40;99.90;;;;;;5077872;28;20545;-74
2023/09/06 05:35:35;;;;;;;0.00;0.00;;;20.40;99.90;;;;;;5082223;28;20027;-73
2023/09/06 05:38:04;;;;;;;0.00;0.00;;;20.50;99.90;;;;;;5060714;28;20361;-73
2023/09/06 05:40:33;;;;;;;0.10;0.10;;;20.60;99.90;;;;;;5026021;28;20033;-73
2023/09/06 05:43:00;;;;;;;0.00;0.00;;;20.60;99.90;;;;;;5013154;28;20553;-73
2023/09/06 05:45:26;;;;;;;0.00;0.00;;;20.70;99.90;;;;;;5102944;27;20490;-73
2023/09/06 05:47:53;;;;;;;0.00;0.00;;;20.70;99.90;;;;;;5046698;28;20033;-74
2023/09/06 05:50:20;;;;;;;0.00;0.00;;;20.70;99.90;;;;;;5034191;28;20026;-73
2023/09/06 05:52:47;;;;;;;0.00;0.00;;;20.60;99.90;;;;;;5021924;28;20516;-73
2023/09/06 05:55:14;;;;;;;0.00;0.00;;;20.70;99.90;;;;;;5034234;28;20428;-73
2023/09/06 05:57:41;;;;;;;0.00;0.00;;;20.80;99.90;;;;;;5062022;28;20042;-73
2023/09/06 06:00:12;;;;;;;0.00;0.00;;;20.80;99.90;;;;;;5042966;28;20122;-73
2023/09/06 06:02:48;;;;;;;0.00;0.00;;;20.90;99.90;;;;;;5047062;27;20034;-74
2023/09/06 06:05:14;;;;;;;0.00;0.00;;;21.00;99.90;;;;;;5021860;28;20393;-73
2023/09/06 06:07:41;;;;;;;0.00;0.00;;;21.20;99.90;;;;;;5096247;28;20031;-74
2023/09/06 06:10:09;;;;;;;3.50;1.98;;;21.10;99.90;;;;;;5083551;28;20030;-73
2023/09/06 06:12:37;;;;;;;0.00;0.00;;;21.10;99.90;;;;;;5012298;28;20090;-73
2023/09/06 06:15:08;;;;;;;0.00;0.00;;;21.20;99.90;;;;;;5027172;28;20099;-73
2023/09/06 06:17:35;;;;;;;0.00;0.00;;;21.30;99.90;;;;;;5009501;28;20454;-73
2023/09/06 06:20:01;;;;;;;0.00;0.00;;;21.30;99.90;;;;;;5006682;28;20018;-73
2023/09/06 06:22:27;;;;;;;0.00;0.00;;;21.30;99.90;;;;;;5046083;28;20070;-74
2023/09/06 06:24:53;;;;;;;0.00;0.00;;;21.40;99.90;;;;;;5030654;28;20026;-73
2023/09/06 06:27:19;;;;;;;0.00;0.00;;;21.30;99.90;;;;;;5023161;28;20049;-73
2023/09/06 06:29:44;;;;;;;0.00;0.00;;;21.30;99.90;;;;;;5017651;28;20057;-73
2023/09/06 06:32:10;;;;;;;0.00;0.00;;;21.70;99.90;;;;;;5054310;28;20042;-73
2023/09/06 06:34:38;;;;;;;0.00;0.00;;;21.80;99.90;;;;;;5086702;28;20023;-73
2023/09/06 06:37:05;;;;;;;0.00;0.00;;;21.90;99.90;;;;;;5050889;28;20026;-72
2023/09/06 06:39:31;;;;;;;0.00;0.00;;;21.90;99.90;;;;;;5055629;28;20472;-73
2023/09/06 06:41:57;;;;;;;0.10;0.10;;;22.00;99.90;;;;;;5012687;28;20030;-72
2023/09/06 06:44:31;;;;;;;0.00;0.00;;;22.00;99.90;;;;;;5069285;28;20413;-73
2023/09/06 06:46:57;;;;;;;0.00;0.00;;;21.90;99.90;;;;;;5012430;28;20314;-73
2023/09/06 06:49:23;;;;;;;0.40;0.40;;;22.30;99.90;;;;;;5058400;28;20497;-73
2023/09/06 06:51:48;;;;;;;0.05;0.05;;;22.20;99.90;;;;;;5035898;28;20018;-73
2023/09/06 06:54:14;;;;;;;0.00;0.00;;;22.30;99.90;;;;;;5030460;28;20022;-73
2023/09/06 06:56:40;;;;;;;0.10;0.10;;;22.10;99.90;;;;;;5063549;28;20020;-73
2023/09/06 06:59:09;;;;;;;0.03;0.03;;;22.20;99.90;;;;;;5049669;28;20443;-73
2023/09/06 07:01:36;;;;;;;0.82;0.82;;;22.30;99.90;;;;;;5020400;28;20041;-73
2023/09/06 07:04:05;;;;;;;0.00;0.00;;;22.40;99.90;;;;;;5012330;28;20493;-73
2023/09/06 07:06:31;;;;;;;0.08;0.08;;;22.50;99.90;;;;;;5066920;28;20058;-73
2023/09/06 07:08:58;;;;;;;0.00;0.00;;;22.60;99.90;;;;;;5062032;28;20110;-73
2023/09/06 07:11:24;;;;;;;0.00;0.00;;;22.60;99.90;;;;;;5022136;28;20387;-73
2023/09/06 07:13:50;;;;;;;0.20;0.20;;;22.60;99.90;;;;;;5032186;28;20030;-73
2023/09/06 07:16:18;;;;;;;0.00;0.00;;;22.90;99.90;;;;;;5013416;28;20034;-73
2023/09/06 07:18:47;;;;;;;0.10;0.10;;;22.90;99.90;;;;;;5068025;28;20030;-73
2023/09/06 07:21:15;;;;;;;0.10;0.10;;;23.30;99.90;;;;;;5059308;28;20118;-73
2023/09/06 07:23:41;;;;;;;0.43;0.43;;;23.50;99.90;;;;;;5057398;28;20028;-73
2023/09/06 07:26:07;;;;;;;0.00;0.00;;;23.50;99.90;;;;;;5021690;28;20041;-73
2023/09/06 07:28:46;;;;;;;0.10;0.10;;;23.30;99.90;;;;;;5011006;28;20037;-74
2023/09/06 07:31:14;;;;;;;0.00;0.00;;;23.40;99.90;;;;;;5008449;28;20509;-74
2023/09/06 07:33:40;;;;;;;0.00;0.00;;;23.20;99.90;;;;;;5093349;28;20110;-74
2023/09/06 07:36:06;;;;;;;0.15;0.15;;;23.30;99.90;;;;;;5081737;28;20019;-74
2023/09/06 07:38:33;;;;;;;0.25;0.25;;;23.40;99.90;;;;;;5030245;28;20087;-73
2023/09/06 07:41:08;;;;;;;0.00;0.00;;;23.50;99.90;;;;;;5025286;28;20026;-74
2023/09/06 07:43:36;;;;;;;1.10;0.90;;;23.60;99.90;;;;;;5021811;28;20496;-74
2023/09/06 07:46:03;;;;;;;0.00;0.00;;;23.90;99.90;;;;;;5043031;28;20018;-74
2023/09/06 07:48:31;;;;;;;0.00;0.00;;;24.00;99.90;;;;;;5016132;28;20330;-74
2023/09/06 07:50:58;;;;;;;0.00;0.00;;;23.90;99.90;;;;;;5034004;28;20026;-74
2023/09/06 07:53:25;;;;;;;0.00;0.00;;;24.10;99.90;;;;;;5032316;28;20034;-74
2023/09/06 07:55:52;;;;;;;2.92;2.08;;;24.30;99.90;;;;;;5033126;28;20028;-73
2023/09/06 07:58:18;;;;;;;0.40;0.38;;;24.30;99.90;;;;;;5008235;28;20045;-77
2023/09/06 08:00:44;;;;;;;0.20;0.20;;;24.50;99.90;;;;;;5001026;28;20053;-78
2023/09/06 08:03:11;;;;;;;0.10;0.10;;;24.60;99.90;;;;;;5001236;28;20036;-79
2023/09/06 08:05:37;;;;;;;0.03;0.03;;;24.70;99.90;;;;;;5007505;28;20462;-79
2023/09/06 08:08:06;;;;;;;0.03;0.03;;;24.60;99.90;;;;;;5009302;28;20073;-79
2023/09/06 08:10:33;;;;;;;0.00;0.00;;;24.80;99.90;;;;;;5009410;28;20029;-79
2023/09/06 08:12:58;;;;;;;0.43;0.43;;;25.00;99.90;;;;;;5008169;28;20029;-79
2023/09/06 08:15:24;;;;;;;0.43;0.20;;;24.80;99.90;;;;;;5008859;28;20029;-79
2023/09/06 08:17:51;;;;;;;0.00;0.00;;;24.70;99.90;;;;;;5009280;28;20030;-78
2023/09/06 08:20:17;;;;;;;0.00;0.00;;;24.70;99.90;;;;;;4998274;28;20077;-79
2023/09/06 08:22:47;;;;;;;0.00;0.00;;;25.00;99.90;;;;;;5012217;28;20087;-80
2023/09/06 08:25:14;;;;;;;0.10;0.10;;;25.20;99.90;;;;;;5012663;28;20036;-80
2023/09/06 08:27:40;;;;;;;0.00;0.00;;;25.20;99.90;;;;;;5012243;28;20120;-79
2023/09/06 08:30:11;;;;;;;0.00;0.00;;;25.00;99.90;;;;;;5011447;28;20017;-79
2023/09/06 08:32:38;;;;;;;0.40;0.40;;;25.20;99.90;;;;;;5004171;28;20045;-79
2023/09/06 08:35:06;;;;;;;0.00;0.00;;;25.10;99.90;;;;;;5011868;28;20368;-78
2023/09/06 08:37:32;;;;;;;0.00;0.00;;;25.30;99.90;;;;;;5009675;28;20113;-79
2023/09/06 08:39:58;;;;;;;4.65;1.60;;;25.40;99.90;;;;;;5012327;28;20109;-79
2023/09/06 08:42:27;;;;;;;0.03;0.03;;;25.80;99.90;;;;;;5012158;28;20541;-80
2023/09/06 08:44:55;;;;;;;0.00;0.00;;;25.50;99.90;;;;;;5012007;28;20057;-79
2023/09/06 08:47:21;;;;;;;0.00;0.00;;;25.70;99.90;;;;;;5011701;28;20069;-79
2023/09/06 08:49:48;;;;;;;0.00;0.00;;;25.70;99.90;;;;;;5011826;28;20110;-79
2023/09/06 08:52:17;;;;;;;0.17;0.17;;;26.00;99.90;;;;;;5010752;28;20533;-80
2023/09/06 08:54:48;;;;;;;8.20;5.53;;;26.00;99.90;;;;;;5012147;28;20026;-80
2023/09/06 08:57:15;;;;;;;0.20;0.20;;;26.10;99.90;;;;;;5010987;28;20029;-80
2023/09/06 08:59:41;;;;;;;0.10;0.10;;;25.90;99.90;;;;;;5011273;28;20441;-80
2023/09/06 09:02:12;;;;;;;0.03;0.03;;;26.10;99.90;;;;;;5011483;28;20029;-79
2023/09/06 09:04:42;;;;;;;0.00;0.00;;;26.30;99.90;;;;;;5011637;28;20034;-79
2023/09/06 09:07:10;;;;;;;0.00;0.00;;;26.30;99.90;;;;;;5010649;28;20042;-79
2023/09/06 09:09:58;;;;;;;0.28;0.28;;;26.50;99.90;;;;;;5011880;28;20462;-79
2023/09/06 09:12:29;;;;;;;0.00;0.00;;;26.60;99.90;;;;;;5011027;28;20486;-79
2023/09/06 09:14:56;;;;;;;0.00;0.00;;;26.80;99.90;;;;;;5011499;28;20097;-79
2023/09/06 09:17:24;;;;;;;0.10;0.10;;;26.80;99.90;;;;;;5011673;28;20030;-79
2023/09/06 09:19:50;;;;;;;0.10;0.10;;;26.60;99.90;;;;;;5011391;28;20431;-79
2023/09/06 09:22:37;;;;;;;0.08;0.08;;;26.60;99.90;;;;;;5011581;28;20026;-79
2023/09/06 09:25:20;;;;;;;0.22;0.22;;;26.80;99.90;;;;;;5011450;28;20026;-79
2023/09/06 09:27:49;;;;;;;0.00;0.00;;;26.90;99.90;;;;;;5011024;28;20525;-79
2023/09/06 09:30:18;;;;;;;0.00;0.00;;;26.80;99.90;;;;;;5010760;28;20022;-79
2023/09/06 09:32:44;;;;;;;0.13;0.13;;;27.00;99.90;;;;;;5010312;28;20562;-79
2023/09/06 09:35:11;;;;;;;0.00;0.00;;;26.80;99.90;;;;;;5012144;28;20478;-78
2023/09/06 09:37:42;;;;;;;0.10;0.10;;;26.90;99.90;;;;;;5011505;28;20037;-79
2023/09/06 09:40:22;;;;;;;0.63;0.63;;;26.90;99.90;;;;;;5011556;28;20386;-78
2023/09/06 09:42:56;;;;;;;0.00;0.00;;;26.90;99.90;;;;;;5011071;28;20106;-79
2023/09/06 09:45:24;;;;;;;0.03;0.03;;;27.30;99.90;;;;;;5011593;28;20418;-79
2023/09/06 09:47:52;;;;;;;0.03;0.03;;;27.70;99.90;;;;;;5011092;28;20069;-79
2023/09/06 09:50:21;;;;;;;0.50;0.50;;;27.60;99.90;;;;;;5009997;28;20022;-79
2023/09/06 09:52:48;;;;;;;0.00;0.00;;;27.90;99.90;;;;;;5011234;28;20034;-79
2023/09/06 09:55:16;;;;;;;0.00;0.00;;;28.20;99.90;;;;;;5011195;28;20022;-79
2023/09/06 09:57:44;;;;;;;0.00;0.00;;;28.40;99.90;;;;;;5010740;28;20026;-79
2023/09/06 10:00:15;;;;;;;0.10;0.10;;;28.50;99.90;;;;;;5010806;28;20057;-78
2023/09/06 10:02:43;;;;;;;0.00;0.00;;;28.60;99.90;;;;;;5009713;28;20038;-79
2023/09/06 10:05:19;;;;;;;0.17;0.17;;;28.70;99.90;;;;;;5010788;28;20026;-78
2023/09/06 10:07:47;;;;;;;0.45;0.45;;;28.80;99.70;;;;;;5009783;28;20456;-79
2023/09/06 10:10:13;;;;;;;0.00;0.00;;;28.90;99.60;;;;;;5009718;28;20026;-79
2023/09/06 10:12:50;;;;;;;0.00;0.00;;;29.10;99.40;;;;;;5010864;28;20036;-79
2023/09/06 10:15:23;;;;;;;0.00;0.00;;;28.90;99.90;;;;;;5010807;28;20030;-79
2023/09/06 10:17:55;;;;;;;0.00;0.00;;;29.00;99.10;;;;;;5011055;28;20038;-79
2023/09/06 10:20:23;;;;;;;0.00;0.00;;;29.00;99.60;;;;;;5010851;28;20095;-78
2023/09/06 10:22:52;;;;;;;0.00;0.00;;;29.00;99.50;;;;;;5010952;28;20022;-79
2023/09/06 10:25:18;;;;;;;0.10;0.10;;;29.30;98.70;;;;;;5010384;28;20045;-77
2023/09/06 10:27:49;;;;;;;0.00;0.00;;;29.50;97.90;;;;;;5010441;28;20034;-78
2023/09/06 10:30:19;;;;;;;0.00;0.00;;;29.70;97.30;;;;;;5010347;28;20026;-79
2023/09/06 10:32:46;;;;;;;0.20;0.20;;;29.60;96.80;;;;;;5009598;28;20292;-79
2023/09/06 10:35:22;;;;;;;0.10;0.10;;;29.90;98.40;;;;;;5010454;28;20020;-79
2023/09/06 10:38:14;;;;;;;0.00;0.00;;;29.60;98.30;;;;;;5010525;28;20052;-79
2023/09/06 10:40:49;;;;;;;0.17;0.17;;;29.90;97.90;;;;;;4999456;28;20104;-79
2023/09/06 10:43:16;;;;;;;0.00;0.00;;;30.00;96.30;;;;;;5025476;28;20069;-79
2023/09/06 10:46:04;;;;;;;0.00;0.00;;;30.00;96.50;;;;;;5010373;28;20537;-79
2023/09/06 10:48:30;;;;;;;0.03;0.03;;;30.40;96.50;;;;;;5010265;28;20030;-79
2023/09/06 10:51:11;;;;;;;5.32;0.40;;;30.90;95.60;;;;;;5010327;28;20097;-79
2023/09/06 10:53:37;;;;;;;0.15;0.05;;;31.60;95.20;;;;;;5010264;28;20018;-80
2023/09/06 10:56:05;;;;;;;0.00;0.00;;;32.00;94.90;;;;;;5010175;28;20030;-80
2023/09/06 10:58:34;;;;;;;0.00;0.00;;;31.90;93.20;;;;;;5010036;28;20034;-79
2023/09/06 11:01:30;;;;;;;0.00;0.00;;;31.50;93.70;;;;;;5010092;28;20041;-79
2023/09/06 11:03:58;;;;;;;0.00;0.00;;;31.30;93.70;;;;;;5003270;28;20053;-79
2023/09/06 11:06:26;;;;;;;0.38;0.38;;;31.60;94.10;;;;;;5010184;28;20026;-79
2023/09/06 11:08:54;;;;;;;0.00;0.00;;;31.60;92.70;;;;;;5008473;28;20042;-79
2023/09/06 11:11:20;;;;;;;0.00;0.00;;;31.60;93.00;;;;;;5009829;28;20378;-79
2023/09/06 11:13:46;;;;;;;0.03;0.03;;;31.80;93.50;;;;;;5009402;28;20478;-80
2023/09/06 11:16:15;;;;;;;0.32;0.20;;;31.70;93.10;;;;;;5009849;28;20105;-82
2023/09/06 11:18:47;;;;;;;0.47;0.28;;;31.80;93.30;;;;;;5008608;28;20025;-81
2023/09/06 11:21:17;;;;;;;0.68;0.32;;;31.90;92.60;;;;;;5009604;28;20109;-80
2023/09/06 11:23:48;;;;;;;0.00;0.00;;;31.90;91.70;;;;;;5055866;28;20020;-80
2023/09/06 11:26:15;;;;;;;0.00;0.00;;;32.00;90.90;;;;;;5025299;28;20026;-79
2023/09/06 11:28:43;;;;;;;0.25;0.25;;;32.30;91.80;;;;;;5012768;28;20038;-80
2023/09/06 11:31:25;;;;;;;1.63;0.60;;;32.50;92.50;;;;;;5025457;28;20030;-80
2023/09/06 11:33:55;;;;;;;;;;;32.50;92.20;;;;;;5098398;28;20027;-80
2023/09/06 11:36:27;;;;;;;0.13;0.13;;;32.60;92.30;;;;;;5074956;28;19911;-80
2023/09/06 11:38:57;;;;;;;0.10;0.10;;;32.40;91.60;;;;;;5031466;28;20034;-80
2023/09/06 11:41:24;;;;;;;0.00;0.00;;;32.50;91.90;;;;;;5036014;28;20031;-80
2023/09/06 11:43:56;;;;;;;0.17;0.17;;;32.90;92.40;;;;;;5042440;28;20032;-80
2023/09/06 11:46:24;;;;;;;0.00;0.00;;;33.00;92.40;;;;;;5091421;28;20115;-82
2023/09/06 11:48:53;;;;;;;0.10;0.10;;;33.30;91.30;;;;;;5050640;28;20033;-78
2023/09/06 11:51:22;;;;;;;0.00;0.00;;;33.40;91.40;;;;;;5048664;28;20493;-78
2023/09/06 11:53:54;;;;;;;0.30;0.30;;;33.10;90.40;;;;;;5015849;28;20051;-80
2023/09/06 11:56:31;;;;;;;0.73;0.30;;;32.50;90.50;;;;;;5025779;28;20030;-78
2023/09/06 11:58:59;;;;;;;0.22;0.10;;;32.50;90.30;;;;;;5009859;28;20058;-79
2023/09/06 12:01:26;;;;;;;1.30;1.20;;;32.90;91.30;;;;;;5072530;28;20023;-80
2023/09/06 12:04:01;;;;;;;0.10;0.10;;;33.90;91.20;;;;;;5005553;28;20079;-80
2023/09/06 12:06:27;;;;;;;0.00;0.00;;;34.10;89.40;;;;;;5065139;28;20561;-80
2023/09/06 12:08:53;;;;;;;0.10;0.10;;;33.90;90.10;;;;;;5075604;28;20048;-80
2023/09/06 12:11:21;;;;;;;0.00;0.00;;;33.70;88.50;;;;;;5067605;28;20040;-80
2023/09/06 12:13:48;;;;;;;0.90;0.75;;;33.70;89.40;;;;;;5043164;28;20018;-80
2023/09/06 12:16:15;;;;;;;0.57;0.57;;;34.70;89.20;;;;;;5014739;28;20072;-81
2023/09/06 12:18:41;;;;;;;0.00;0.00;;;34.90;86.80;;;;;;5074900;28;20028;-81
2023/09/06 12:21:07;;;;;;;0.10;0.10;;;35.00;88.00;;;;;;5063520;28;20410;-80
2023/09/06 12:23:35;;;;;;;0.00;0.00;;;35.50;86.90;;;;;;5050149;27;20384;-81
2023/09/06 12:26:01;;;;;;;0.10;0.10;;;35.80;84.90;;;;;;5028718;28;20030;-84
2023/09/06 12:28:31;;;;;;;0.25;0.10;;;35.50;82.00;;;;;;5014428;28;20052;-84
2023/09/06 12:31:01;;;;;;;0.17;0.17;;;36.00;80.10;;;;;;5023563;28;20079;-84
2023/09/06 12:33:28;;;;;;;0.00;0.00;;;35.40;80.10;;;;;;5101172;28;20502;-84
2023/09/06 12:36:01;;;;;;;0.00;0.00;;;36.10;82.20;;;;;;5069899;28;20011;-83
2023/09/06 12:38:28;;;;;;;0.47;0.38;;;36.90;83.40;;;;;;5048142;27;20038;-80
2023/09/06 12:40:54;;;;;;;0.00;0.00;;;37.40;79.90;;;;;;5031906;28;20018;-83
2023/09/06 12:43:21;;;;;;;0.00;0.00;;;37.10;77.50;;;;;;5029975;28;20363;-84
2023/09/06 12:45:47;;;;;;;0.10;0.10;;;37.10;76.90;;;;;;5096674;28;20028;-80
2023/09/06 12:48:14;;;;;;;0.30;0.13;;;37.20;76.10;;;;;;5074683;28;20027;-81
2023/09/06 12:50:39;;;;;;;0.00;0.00;;;36.70;76.00;;;;;;5040139;28;20033;-82
2023/09/06 12:53:10;;;;;;;0.88;0.43;;;37.10;77.20;;;;;;5028988;28;20026;-81
2023/09/06 12:55:36;;;;;;;0.00;0.00;;;37.90;75.70;;;;;;5023869;28;20024;-81
2023/09/06 12:58:05;;;;;;;0.00;0.00;;;38.40;74.20;;;;;;5091970;28;20080;-81
2023/09/06 13:00:32;;;;;;;0.55;0.55;;;37.80;74.20;;;;;;5053297;27;20037;-81